Latest Weather Observations for Port Augusta

IDS60801

Issued at 2:35 pm CST Friday 25 July 2014 (issued every 30 minutes, with the page automatically refreshed every 10 minutes)

About weather observations | Map of weather stations | Latest weather observations for SA | Other Formats
Station Details ID: 018201 Name: PORT AUGUSTA AERO Lat: -32.51 Lon: 137.72 Height: 13.97 m
Data from the previous 72 hours. | See also: Recent months at Port Augusta
Date/Time
CST
Temp
°C
App
Temp
°C
Dew
Point
Rel
Hum
%
Delta-T
°C
Wind Press
QNH
hPa
Press
MSL
hPa
Rain
since 9 am
mm
Dir
 
Spd
km/h
Gust
km/h
Spd
kts
Gust
kts
25/02:30pm 18.0 14.0 6.8 48 5.6 W 17 24 9 13 1019.8 - 0.0
25/02:00pm 19.1 15.4 8.1 49 5.6 W 17 24 9 13 1019.8 - 0.0
25/01:30pm 18.7 14.4 7.8 49 5.6 NW 20 32 11 17 1019.8 - 0.0
25/01:00pm 17.7 13.8 8.6 55 4.7 NW 19 26 10 14 1020.0 - 0.0
25/12:30pm 16.8 13.3 8.8 59 4.1 W 17 24 9 13 1020.6 - 0.0
25/12:00pm 16.5 13.4 9.0 61 3.9 NW 15 20 8 11 1020.9 1020.9 0.0
25/11:30am 15.7 12.6 8.7 63 3.6 NW 15 24 8 13 1021.3 - 0.0
25/11:00am 16.0 13.8 9.4 65 3.4 NW 11 19 6 10 1021.4 - 0.0
25/10:30am 14.4 11.5 9.6 73 2.5 NNW 15 20 8 11 1021.6 - 0.0
25/10:00am 14.1 11.4 9.1 72 2.5 NNW 13 19 7 10 1021.4 - 0.0
25/09:30am 13.5 10.2 9.6 77 2.0 N 17 22 9 12 1021.1 - 0.0
25/09:00am 12.4 9.9 9.8 84 1.3 N 13 15 7 8 1021.0 1021.0 0.4
25/08:30am 10.7 8.1 9.5 92 0.6 NNW 13 15 7 8 1020.5 - 0.4
25/08:00am 9.0 6.1 8.1 94 0.4 NNW 13 17 7 9 1020.1 - 0.4
25/07:30am 9.6 6.8 8.5 93 0.5 NW 13 17 7 9 1019.6 - 0.4
25/07:00am 9.6 6.8 8.5 93 0.5 NNW 13 17 7 9 1019.3 - 0.2
25/06:30am 9.7 7.3 8.6 93 0.5 N 11 15 6 8 1018.7 - 0.2
25/06:00am 9.9 6.8 8.8 93 0.5 N 15 17 8 9 1018.2 1018.2 0.2
25/05:30am 9.7 6.9 8.6 93 0.5 N 13 15 7 8 1017.9 - 0.2
25/05:00am 9.7 7.3 8.5 92 0.6 N 11 13 6 7 1017.6 - 0.2
25/04:30am 9.6 6.8 8.4 92 0.6 N 13 17 7 9 1017.4 - 0.2
25/04:00am 10.0 8.0 8.6 91 0.7 N 9 11 5 6 1017.2 - 0.2
25/03:30am 10.5 8.2 9.1 91 0.7 N 11 13 6 7 1017.1 - 0.2
25/03:00am 10.3 8.0 9.1 92 0.6 N 11 15 6 8 1017.0 1017.0 0.2
25/02:30am 10.3 6.8 8.7 90 0.8 N 17 19 9 10 1016.8 - 0.2
25/02:00am 10.6 8.0 9.4 92 0.6 N 13 17 7 9 1016.7 - 0.2
25/01:30am 10.3 8.4 9.1 92 0.6 NNW 9 11 5 6 1016.7 - 0.2
25/01:00am 10.2 7.9 9.0 92 0.6 NNW 11 13 6 7 1016.6 - 0.2
25/12:30am 10.5 8.7 9.3 92 0.6 NW 9 13 5 7 1016.6 - 0.2
25/12:00am 10.7 8.5 9.3 91 0.7 N 11 11 6 6 1016.6 1016.6 0.2
 
Date/Time
CST
Temp
°C
App
Temp
°C
Dew
Point
Rel
Hum
%
Delta-T
°C
Wind Press
QNH
hPa
Press
MSL
hPa
Rain
since 9 am
mm
Dir
 
Spd
km/h
Gust
km/h
Spd
kts
Gust
kts
24/11:30pm 10.8 8.2 9.2 90 0.8 NNW 13 15 7 8 1016.5 - 0.2
24/11:00pm 10.6 8.3 9.0 90 0.8 NW 11 13 6 7 1016.3 - 0.2
24/10:30pm 10.1 7.4 9.0 93 0.5 NNW 13 15 7 8 1016.2 - 0.2
24/10:00pm 10.1 8.6 9.0 93 0.5 NW 7 11 4 6 1016.1 - 0.2
24/09:30pm 10.0 8.4 8.8 92 0.6 W 7 7 4 4 1016.0 - 0.2
24/09:00pm 10.6 8.4 9.4 92 0.6 NNW 11 13 6 7 1015.7 1015.7 0.2
24/08:30pm 9.7 7.9 8.0 89 0.8 NNW 7 11 4 6 1015.3 - 0.2
24/08:00pm 11.7 10.3 9.6 87 1.1 NNW 7 11 4 6 1015.1 - 0.2
24/07:30pm 10.9 9.0 9.2 89 0.8 SW 9 13 5 7 1014.7 - 0.2
24/07:00pm 11.4 9.2 9.5 88 1.0 WSW 11 15 6 8 1014.3 - 0.2
24/06:30pm 12.4 10.9 10.5 88 1.0 W 9 11 5 6 1013.8 - 0.2
24/06:00pm 12.8 11.0 10.7 87 1.1 W 11 13 6 7 1013.4 1013.4 0.2
24/05:30pm 12.9 9.9 10.6 86 1.2 WSW 17 22 9 12 1013.1 - 0.2
24/05:00pm 13.4 8.6 10.4 82 1.6 WSW 26 35 14 19 1012.8 - 0.2
24/04:38pm 16.5 10.5 8.5 59 4.1 W 30 48 16 26 1012.6 - 0.0
24/04:30pm 17.7 11.4 7.2 50 5.3 WNW 30 39 16 21 1012.3 - 0.0
24/04:00pm 18.8 13.6 7.3 47 5.8 WNW 24 32 13 17 1012.0 - 0.0
24/03:30pm 18.2 12.7 7.6 50 5.4 WNW 26 37 14 20 1011.9 - 0.0
24/03:00pm 19.6 13.8 8.0 47 6.0 WNW 28 37 15 20 1011.5 1011.5 0.0
24/02:30pm 18.6 12.8 6.4 45 6.1 W 26 35 14 19 1011.4 - 0.0
24/02:00pm 18.4 11.9 6.6 46 5.9 W 30 44 16 24 1011.4 - 0.0
24/01:30pm 18.8 12.2 7.6 48 5.7 WNW 32 44 17 24 1011.3 - 0.0
24/01:00pm 18.5 11.9 8.5 52 5.2 W 33 44 18 24 1011.5 - 0.0
24/12:30pm 17.6 11.6 8.5 55 4.7 W 30 44 16 24 1011.7 - 0.0
24/12:00pm 17.0 10.9 8.4 57 4.4 W 30 43 16 23 1012.0 1012.0 0.0
24/11:30am 16.6 8.4 8.3 58 4.2 W 41 52 22 28 1012.3 - 0.0
24/11:00am 16.7 9.6 9.4 62 3.8 W 37 48 20 26 1012.4 - 0.0
24/10:30am 16.4 10.3 9.8 65 3.5 W 32 41 17 22 1012.4 - 0.0
24/10:00am 15.4 9.1 9.7 69 3.0 WNW 33 41 18 22 1012.3 - 0.0
24/09:30am 14.6 9.1 10.4 76 2.2 WNW 30 35 16 19 1012.1 - 0.0
24/09:00am 13.4 8.2 10.2 81 1.7 NW 28 35 15 19 1012.0 1012.0 2.6
24/08:30am 11.7 7.7 10.3 91 0.7 NW 22 30 12 16 1011.5 - 2.6
24/08:00am 11.2 7.1 10.1 93 0.6 NW 22 26 12 14 1011.3 - 2.6
24/07:30am 11.3 7.7 10.4 94 0.5 NW 20 28 11 15 1011.2 - 2.6
24/07:24am 11.3 7.3 10.4 94 0.5 NW 22 28 12 15 1011.1 - 2.6
24/07:00am 11.0 7.3 10.2 95 0.4 NW 20 26 11 14 1010.8 - 2.6
24/06:47am 11.1 7.5 10.5 96 0.3 NNW 20 28 11 15 1010.8 - 2.6
24/06:30am 11.1 6.7 10.3 95 0.4 NW 24 32 13 17 1010.5 - 2.6
24/06:00am 11.5 6.6 9.8 89 0.9 NW 26 32 14 17 1010.2 1010.2 2.4
24/05:30am 11.4 6.5 9.8 90 0.8 NNW 26 33 14 18 1009.7 - 2.4
24/05:00am 11.6 6.1 9.3 86 1.2 NNW 28 35 15 19 1009.3 - 2.4
24/04:39am 11.7 6.2 9.1 84 1.3 NNW 28 39 15 21 1009.1 - 2.4
24/04:30am 11.5 6.8 9.1 85 1.2 NNW 24 33 13 18 1009.2 - 2.4
24/04:00am 12.0 6.1 9.0 82 1.5 N 30 39 16 21 1009.0 - 2.4
24/03:30am 12.1 6.5 8.6 79 1.7 N 28 35 15 19 1008.8 - 2.4
24/03:00am 12.5 6.5 8.8 78 1.9 N 30 39 16 21 1008.7 1008.7 2.4
24/02:30am 12.4 6.8 8.7 78 1.8 N 28 39 15 21 1008.7 - 2.4
24/02:00am 12.6 7.3 8.5 76 2.0 NNW 26 35 14 19 1008.9 - 2.4
24/01:30am 12.6 7.3 8.3 75 2.1 NNW 26 33 14 18 1008.8 - 2.4
24/01:00am 12.6 8.1 8.5 76 2.0 NNW 22 32 12 17 1008.9 - 2.4
24/12:30am 12.5 7.5 8.0 74 2.2 NNW 24 35 13 19 1009.0 - 2.4
24/12:00am 12.7 6.5 8.0 73 2.3 NNW 30 41 16 22 1009.1 1009.1 2.4
 
Date/Time
CST
Temp
°C
App
Temp
°C
Dew
Point
Rel
Hum
%
Delta-T
°C
Wind Press
QNH
hPa
Press
MSL
hPa
Rain
since 9 am
mm
Dir
 
Spd
km/h
Gust
km/h
Spd
kts
Gust
kts
23/11:30pm 11.9 8.3 8.4 79 1.7 N 17 24 9 13 1009.4 - 2.4
23/11:00pm 12.3 7.4 8.6 78 1.8 NNW 24 39 13 21 1009.6 - 2.4
23/10:51pm 12.6 6.9 8.5 76 2.0 NNW 28 46 15 25 1009.6 - 2.4
23/10:30pm 11.1 7.2 8.7 85 1.2 N 19 22 10 12 1009.7 - 2.4
23/10:00pm 11.2 7.7 8.8 85 1.2 N 17 24 9 13 1009.6 - 2.4
23/09:30pm 11.2 7.1 8.8 85 1.2 N 20 24 11 13 1009.8 - 2.4
23/09:00pm 11.2 7.3 8.6 84 1.3 NNW 19 24 10 13 1009.9 1009.9 2.0
23/08:30pm 10.6 6.4 8.2 85 1.2 N 20 26 11 14 1009.6 - 2.0
23/08:00pm 9.9 6.9 7.8 87 1.0 NNW 13 17 7 9 1009.7 - 2.0
23/07:30pm 10.6 7.3 8.2 85 1.2 N 15 17 8 9 1009.9 - 2.0
23/07:00pm 10.9 7.0 8.5 85 1.2 NNE 19 24 10 13 1009.9 - 2.0
23/06:30pm 10.7 7.6 9.0 89 0.8 NE 15 20 8 11 1010.2 - 2.0
23/06:00pm 11.0 7.5 8.6 85 1.2 NNE 17 24 9 13 1010.6 1010.6 1.6
23/05:30pm 11.0 7.5 8.9 87 1.0 N 17 20 9 11 1010.9 - 1.6
23/05:00pm 11.0 8.3 8.9 87 1.0 NNW 13 15 7 8 1011.1 - 1.4
23/04:30pm 11.5 7.0 8.5 82 1.5 N 22 30 12 16 1011.1 - 1.0
23/04:00pm 13.2 6.9 7.4 68 2.8 N 30 43 16 23 1010.7 - 0.2
23/03:30pm 13.9 6.9 6.7 62 3.5 N 33 44 18 24 1010.7 - 0.0
23/03:00pm 15.6 9.5 4.6 48 5.2 NNE 26 37 14 20 1010.2 1010.2 0.0
23/02:30pm 15.8 7.6 4.5 47 5.3 N 37 50 20 27 1010.5 - 0.0
23/02:27pm 15.7 7.5 4.7 48 5.2 N 37 56 20 30 1010.6 - 0.0
23/02:00pm 17.2 7.9 2.8 38 6.6 N 41 54 22 29 1010.8 - 0.0
23/01:30pm 18.1 8.1 2.4 35 7.2 N 44 59 24 32 1011.3 - 0.0
23/01:04pm 17.6 9.4 2.8 37 6.8 N 35 54 19 29 1012.3 - 0.0
23/01:00pm 17.6 9.8 2.8 37 6.8 N 33 48 18 26 1012.3 - 0.0
23/12:30pm 17.2 10.9 3.5 40 6.3 N 26 41 14 22 1012.6 - 0.0
23/12:00pm 14.9 12.8 6.5 57 4.1 SE 7 11 4 6 1013.5 1013.5 0.0
23/11:30am 14.2 12.3 7.5 64 3.3 S 7 9 4 5 1014.6 - 0.0
23/11:00am 14.4 11.5 6.3 58 3.9 E 11 15 6 8 1014.8 - 0.0
23/10:30am 13.4 8.4 6.3 62 3.4 NE 22 28 12 15 1015.9 - 0.0
23/10:00am 11.8 6.9 6.9 72 2.3 E 22 26 12 14 1015.7 - 0.0
23/09:30am 11.1 7.7 9.2 88 0.9 ESE 17 20 9 11 1016.2 - 0.0
23/09:00am 10.9 8.5 8.7 86 1.1 SE 11 15 6 8 1017.0 1017.0 0.6
23/08:30am 10.2 8.7 8.6 90 0.8 SSW 6 9 3 5 1017.8 - 0.4
23/08:00am 9.3 7.0 7.6 89 0.8 SW 9 11 5 6 1017.7 - 0.4
23/07:30am 9.1 7.2 7.5 90 0.8 W 7 11 4 6 1017.6 - 0.4
23/07:00am 9.9 6.6 6.2 78 1.7 ESE 13 15 7 8 1017.1 - 0.2
23/06:30am 9.9 7.8 6.8 81 1.5 WSW 7 9 4 5 1017.2 - 0.2
23/06:00am 10.7 9.6 5.3 69 2.5 CALM 0 0 0 0 1017.2 1017.2 0.2
23/05:30am 10.2 7.7 4.8 69 2.4 W 7 9 4 5 1017.2 - 0.0
23/05:00am 10.4 6.6 3.7 63 2.9 W 13 15 7 8 1017.1 - 0.0
23/04:30am 10.2 6.3 3.5 63 2.9 WSW 13 15 7 8 1017.0 - 0.0
23/04:00am 8.9 5.9 4.1 72 2.1 WSW 9 11 5 6 1017.2 - 0.0
23/03:30am 8.8 6.3 3.6 70 2.2 WNW 6 7 3 4 1017.6 - 0.0
23/03:00am 9.7 6.9 3.4 65 2.7 SE 7 9 4 5 1017.7 1017.7 0.0
23/02:30am 9.1 6.6 3.9 70 2.3 SW 6 6 3 3 1018.2 - 0.0
23/02:00am 9.0 6.8 3.4 68 2.4 SW 4 6 2 3 1018.4 - 0.0
23/01:30am 9.1 6.5 3.3 67 2.5 SW 6 6 3 3 1018.9 - 0.0
23/01:00am 9.3 7.8 3.1 65 2.7 CALM 0 6 0 3 1019.0 - 0.0
23/12:30am 9.8 7.5 2.9 62 3.0 E 4 7 2 4 1019.2 - 0.0
23/12:00am 10.0 8.6 3.3 63 2.9 CALM 0 0 0 0 1019.3 1019.3 0.0
 
Date/Time
CST
Temp
°C
App
Temp
°C
Dew
Point
Rel
Hum
%
Delta-T
°C
Wind Press
QNH
hPa
Press
MSL
hPa
Rain
since 9 am
mm
Dir
 
Spd
km/h
Gust
km/h
Spd
kts
Gust
kts
22/11:30pm 9.7 6.9 3.2 64 2.8 W 7 9 4 5 1019.8 - 0.0
22/11:00pm 9.1 5.9 3.1 66 2.6 WSW 9 13 5 7 1019.9 - 0.0
22/10:30pm 9.1 6.5 3.3 67 2.5 W 6 7 3 4 1019.7 - 0.0
22/10:00pm 10.9 8.1 3.2 59 3.4 SE 7 9 4 5 1019.7 - 0.0
22/09:30pm 10.3 6.8 3.6 63 2.9 SE 11 13 6 7 1019.7 - 0.0
22/09:00pm 9.5 6.3 3.0 64 2.8 ESE 9 13 5 7 1019.8 1019.8 0.0
22/08:30pm 8.9 6.1 2.3 63 2.8 SW 6 7 3 4 1019.8 - 0.0
22/08:00pm 9.5 6.7 1.9 59 3.2 NW 6 6 3 3 1019.9 - 0.0
22/07:30pm 10.3 7.3 1.9 56 3.5 WNW 7 9 4 5 1020.1 - 0.0
22/07:00pm 11.0 8.1 1.5 52 4.0 ENE 6 6 3 3 1019.7 - 0.0
22/06:30pm 14.1 10.9 0.7 40 5.7 ENE 7 9 4 5 1019.8 - 0.0
22/06:00pm 14.3 11.6 0.2 38 5.9 N 4 6 2 3 1019.6 1019.6 0.0
22/05:30pm 16.6 13.3 0.3 33 7.0 N 7 9 4 5 1019.4 - 0.0
22/05:00pm 18.7 14.7 0.3 29 8.1 N 11 15 6 8 1019.5 - 0.0
22/04:30pm 20.3 15.4 -0.3 25 9.1 N 15 20 8 11 1019.7 - 0.0
22/04:00pm 21.0 16.0 -0.9 23 9.6 N 15 20 8 11 1019.5 - 0.0
22/03:30pm 20.9 15.8 -2.2 21 9.8 N 15 19 8 10 1019.8 - 0.0
22/03:00pm 21.1 15.2 -2.0 21 9.9 N 19 24 10 13 1020.1 1020.1 0.0

Other Formats:

Comma delimited format used in spreadsheet applications
http://www.bom.gov.au/fwo/IDS60801/IDS60801.95666.axf

JavaScript Object Notation format (JSON) in row-major order
http://www.bom.gov.au/fwo/IDS60801/IDS60801.95666.json